createdAt,value
2022-09-11T00:04:45.590Z,11.80
2022-09-11T00:09:49.424Z,11.53
2022-09-11T00:14:53.883Z,12.27
2022-09-11T00:20:00.202Z,11.50
2022-09-11T00:25:04.047Z,11.15
2022-09-11T00:30:09.156Z,10.93
2022-09-11T00:35:14.460Z,11.10
2022-09-11T00:40:19.350Z,11.90
2022-09-11T00:45:25.268Z,12.52
2022-09-11T00:50:31.408Z,13.75
2022-09-11T00:55:39.070Z,12.93
2022-09-11T01:00:45.229Z,12.30
2022-09-11T01:05:52.541Z,12.05
2022-09-11T01:11:05.120Z,12.60
2022-09-11T01:16:14.663Z,12.88
2022-09-11T01:21:40.002Z,12.43
2022-09-11T01:27:08.388Z,14.13
2022-09-11T01:32:19.214Z,12.32
2022-09-11T01:37:25.860Z,12.30
2022-09-11T01:42:31.675Z,11.95
2022-09-11T01:47:38.102Z,11.88
2022-09-11T01:52:47.484Z,11.85
2022-09-11T01:57:54.600Z,12.32
2022-09-11T02:03:03.284Z,11.50
2022-09-11T02:08:10.236Z,11.18
2022-09-11T02:13:27.182Z,9.10
2022-09-11T02:18:44.383Z,9.13
2022-09-11T02:23:49.660Z,9.02
2022-09-11T02:28:53.845Z,9.00
2022-09-11T02:33:59.091Z,8.13
2022-09-11T02:39:13.467Z,7.63
2022-09-11T02:44:21.739Z,7.97
2022-09-11T02:49:38.166Z,7.63
2022-09-11T02:54:52.171Z,7.38
2022-09-11T03:00:01.145Z,6.57
2022-09-11T03:05:10.003Z,6.70
2022-09-11T03:10:14.178Z,5.88
2022-09-11T03:15:18.255Z,5.63
2022-09-11T03:20:25.159Z,5.40
2022-09-11T03:25:29.891Z,5.38
2022-09-11T03:30:36.659Z,5.28
2022-09-11T03:35:42.456Z,5.45
2022-09-11T03:40:47.557Z,5.45
2022-09-11T03:45:51.984Z,5.22
2022-09-11T03:50:59.037Z,4.93
2022-09-11T03:56:04.071Z,5.05
2022-09-11T04:01:15.735Z,4.93
2022-09-11T04:06:21.614Z,5.20
2022-09-11T04:11:26.262Z,5.00
2022-09-11T04:16:33.638Z,4.90
2022-09-11T04:21:39.417Z,4.53
2022-09-11T04:26:43.660Z,4.72
2022-09-11T04:31:56.314Z,5.00
2022-09-11T04:37:06.220Z,4.82
2022-09-11T04:42:10.633Z,4.30
2022-09-11T04:47:17.102Z,4.60
2022-09-11T04:52:23.714Z,4.75
2022-09-11T04:57:28.400Z,4.30
2022-09-11T05:02:32.260Z,4.65
2022-09-11T05:07:38.463Z,4.50
2022-09-11T05:12:43.110Z,4.13
2022-09-11T05:17:48.504Z,4.32
2022-09-11T05:22:58.592Z,3.92
2022-09-11T05:28:02.503Z,4.45
2022-09-11T05:33:06.868Z,4.75
2022-09-11T05:38:12.090Z,4.60
2022-09-11T05:43:17.332Z,4.00
2022-09-11T05:48:21.256Z,3.78
2022-09-11T05:53:28.866Z,4.55
2022-09-11T05:58:33.784Z,4.25
2022-09-11T06:03:38.785Z,4.15
2022-09-11T06:08:44.424Z,4.70
2022-09-11T06:18:54.368Z,4.20
2022-09-11T06:24:00.093Z,4.40
2022-09-11T06:29:04.763Z,4.75
2022-09-11T06:34:13.592Z,4.70
2022-09-11T06:44:27.495Z,5.88
2022-09-11T06:49:33.448Z,5.70
2022-09-11T06:55:17.798Z,6.20
2022-09-11T07:00:29.442Z,6.35
2022-09-11T07:05:33.793Z,6.95
2022-09-11T07:10:40.343Z,5.70
2022-09-11T07:15:44.695Z,5.13
2022-09-11T07:20:48.701Z,5.50
2022-09-11T07:25:55.240Z,5.53
2022-09-11T07:36:12.203Z,4.82
2022-09-11T07:41:21.709Z,3.10
2022-09-11T07:46:29.992Z,3.97
2022-09-11T07:51:39.036Z,3.17
2022-09-11T07:56:45.549Z,3.55
2022-09-11T08:01:50.250Z,4.00
2022-09-11T08:06:54.235Z,6.97
2022-09-11T08:12:04.979Z,7.82
2022-09-11T08:17:11.888Z,5.93
2022-09-11T08:22:17.124Z,8.48
2022-09-11T08:27:24.367Z,4.05
2022-09-11T08:32:29.456Z,3.20
2022-09-11T08:37:35.060Z,2.95
2022-09-11T08:42:41.979Z,2.78
2022-09-11T08:47:49.804Z,3.10
2022-09-11T08:52:55.506Z,4.40
2022-09-11T08:58:10.191Z,4.75
2022-09-11T09:03:39.007Z,4.65
2022-09-11T09:08:52.577Z,4.13
2022-09-11T09:14:12.226Z,4.18
2022-09-11T09:19:19.068Z,3.90
2022-09-11T09:24:24.014Z,3.47
2022-09-11T09:29:37.862Z,3.00
2022-09-11T09:34:45.988Z,3.42
2022-09-11T09:39:51.375Z,5.00
2022-09-11T09:45:10.836Z,4.03
2022-09-11T09:50:19.788Z,3.38
2022-09-11T09:55:23.791Z,2.60
2022-09-11T10:00:31.095Z,3.53
2022-09-11T10:05:38.284Z,2.22
2022-09-11T10:10:42.433Z,2.30
2022-09-11T10:15:50.066Z,3.50
2022-09-11T10:20:54.843Z,3.70
2022-09-11T10:25:58.673Z,6.88
2022-09-11T10:31:04.908Z,1.90
2022-09-11T10:36:10.081Z,2.80
2022-09-11T10:41:19.352Z,3.10
2022-09-11T10:46:41.441Z,2.60
2022-09-11T10:52:01.927Z,3.30
2022-09-11T10:57:13.307Z,2.00
2022-09-11T11:02:22.022Z,2.80
2022-09-11T11:07:44.580Z,2.67
2022-09-11T11:13:01.370Z,2.53
2022-09-11T11:18:38.294Z,4.72
2022-09-11T11:23:53.017Z,3.92
2022-09-11T11:29:10.059Z,1.70
2022-09-11T11:34:39.481Z,1.98
2022-09-11T11:39:50.150Z,2.30
2022-09-11T11:44:55.628Z,1.90
2022-09-11T11:50:07.102Z,2.00
2022-09-11T11:55:18.003Z,2.35
2022-09-11T12:00:22.116Z,1.75
2022-09-11T12:05:30.887Z,2.25
2022-09-11T12:10:36.128Z,2.00
2022-09-11T12:15:40.128Z,1.92
2022-09-11T12:20:47.002Z,2.50
2022-09-11T12:26:20.573Z,2.70
2022-09-11T12:31:24.464Z,2.63
2022-09-11T12:36:50.703Z,1.67
2022-09-11T12:41:54.655Z,1.30
2022-09-11T12:47:11.314Z,1.30
2022-09-11T12:52:31.686Z,1.08
2022-09-11T12:57:38.170Z,1.75
2022-09-11T13:02:44.657Z,1.40
2022-09-11T13:07:53.913Z,1.10
2022-09-11T13:12:58.812Z,1.30
2022-09-11T13:18:02.765Z,1.30
2022-09-11T13:28:23.258Z,1.40
2022-09-11T13:33:30.428Z,0.70
2022-09-11T13:38:36.704Z,1.10
2022-09-11T13:43:45.111Z,1.50
2022-09-11T13:48:50.553Z,0.90
2022-09-11T13:54:04.051Z,0.80
2022-09-11T13:59:36.804Z,4.87
2022-09-11T14:04:42.171Z,1.00
2022-09-11T14:09:59.726Z,0.95
2022-09-11T14:15:10.774Z,1.17
2022-09-11T14:20:20.220Z,0.77
2022-09-11T14:25:25.748Z,0.93
2022-09-11T14:30:37.400Z,1.10
2022-09-11T14:35:41.616Z,0.90
2022-09-11T14:45:52.458Z,1.20
2022-09-11T14:50:56.496Z,1.38
2022-09-11T14:56:02.446Z,1.40
2022-09-11T15:01:06.702Z,1.77
2022-09-11T15:11:16.916Z,1.30
2022-09-11T15:16:20.814Z,1.58
2022-09-11T15:21:24.726Z,2.20
2022-09-11T15:26:29.979Z,2.10
2022-09-11T15:31:33.987Z,1.73
2022-09-11T15:36:38.532Z,2.10
2022-09-11T15:41:44.606Z,2.00
2022-09-11T15:46:48.507Z,1.95
2022-09-11T15:51:53.868Z,2.00
2022-09-11T16:02:02.933Z,2.60
2022-09-11T16:07:06.870Z,1.50
2022-09-11T16:12:12.063Z,2.50
2022-09-11T16:17:19.499Z,3.78
2022-09-11T16:22:23.557Z,1.95
2022-09-11T16:27:28.935Z,4.35
2022-09-11T16:32:33.283Z,2.22
2022-09-11T16:37:37.176Z,2.40
2022-09-11T16:42:42.384Z,3.10
2022-09-11T16:47:46.219Z,2.83
2022-09-11T16:52:50.982Z,1.90
2022-09-11T16:57:56.254Z,1.88
2022-09-11T17:03:00.150Z,3.33
2022-09-11T17:08:04.482Z,2.72
2022-09-11T17:13:10.234Z,2.25
2022-09-11T17:23:19.445Z,2.63
2022-09-11T17:33:28.272Z,4.50
2022-09-11T17:38:32.227Z,3.92
2022-09-11T17:43:37.833Z,2.90
2022-09-11T17:48:41.763Z,2.85
2022-09-11T17:53:48.299Z,2.97
2022-09-11T17:58:54.394Z,3.20
2022-09-11T18:03:59.587Z,4.40
2022-09-11T18:09:11.812Z,4.28
2022-09-11T18:14:18.497Z,3.75
2022-09-11T18:19:22.580Z,4.97
2022-09-11T18:24:29.878Z,3.83
2022-09-11T18:29:35.735Z,3.47
2022-09-11T18:34:39.665Z,3.33
2022-09-11T18:39:43.530Z,2.90
2022-09-11T18:44:48.801Z,2.83
2022-09-11T18:49:52.640Z,2.72
2022-09-11T18:54:56.613Z,2.50
2022-09-11T19:00:01.964Z,2.65
2022-09-11T19:05:06.455Z,2.72
2022-09-11T19:10:11.404Z,2.53
2022-09-11T19:15:17.327Z,3.50
2022-09-11T19:20:21.946Z,2.65
2022-09-11T19:25:31.325Z,2.45
2022-09-11T19:30:39.076Z,2.28
2022-09-11T19:35:56.463Z,2.30
2022-09-11T19:41:01.116Z,2.17
2022-09-11T19:46:07.638Z,2.30
2022-09-11T19:51:13.454Z,2.35
2022-09-11T19:56:18.052Z,1.77
2022-09-11T20:01:25.508Z,1.77
2022-09-11T20:06:31.845Z,1.90
2022-09-11T20:11:35.930Z,2.05
2022-09-11T20:16:41.698Z,2.00
2022-09-11T20:26:49.116Z,2.65
2022-09-11T20:31:55.945Z,2.83
2022-09-11T20:37:00.747Z,2.88
2022-09-11T20:42:05.069Z,2.70
2022-09-11T20:47:11.755Z,2.58
2022-09-11T20:52:16.256Z,2.58
2022-09-11T20:57:20.119Z,2.78
2022-09-11T21:02:25.912Z,3.17
2022-09-11T21:12:33.191Z,3.42
2022-09-11T21:17:38.387Z,2.90
2022-09-11T21:22:42.227Z,2.80
2022-09-11T21:27:49.006Z,3.30
2022-09-11T21:32:54.683Z,2.67
2022-09-11T21:37:58.561Z,2.72
2022-09-11T21:43:02.530Z,2.63
2022-09-11T21:59:43.638Z,3.38
2022-09-11T22:04:47.432Z,2.90
2022-09-11T22:09:51.613Z,2.95
2022-09-11T22:14:56.867Z,3.20
2022-09-11T22:20:00.672Z,3.07
2022-09-11T22:25:05.011Z,3.28
2022-09-11T22:30:11.067Z,3.60
2022-09-11T22:35:15.145Z,3.30
2022-09-11T22:40:18.979Z,3.42
2022-09-11T22:45:24.114Z,3.10
2022-09-11T22:50:27.923Z,2.87
2022-09-11T22:55:32.850Z,2.88
2022-09-11T23:00:38.215Z,2.60
2022-09-11T23:05:59.592Z,3.30
2022-09-11T23:11:05.154Z,3.10
2022-09-11T23:16:15.392Z,3.00
2022-09-11T23:21:19.303Z,2.90
2022-09-11T23:26:23.687Z,2.83
2022-09-11T23:31:31.171Z,2.63
2022-09-11T23:36:35.983Z,2.75
2022-09-11T23:41:40.479Z,2.50
2022-09-11T23:46:45.699Z,2.60
2022-09-11T23:51:50.316Z,3.10
2022-09-11T23:56:54.108Z,2.92
